createdAt,value
2018-08-09T00:01:02.921Z,8.27
2018-08-09T00:03:31.578Z,8.83
2018-08-09T00:06:00.281Z,8.50
2018-08-09T00:08:29.067Z,8.87
2018-08-09T00:10:57.792Z,8.53
2018-08-09T00:13:26.514Z,8.87
2018-08-09T00:15:55.397Z,9.07
2018-08-09T00:18:24.387Z,8.80
2018-08-09T00:20:53.183Z,8.77
2018-08-09T00:23:22.065Z,8.93
2018-08-09T00:25:51.291Z,9.03
2018-08-09T00:28:19.897Z,8.90
2018-08-09T00:30:48.568Z,8.50
2018-08-09T00:33:17.229Z,8.00
2018-08-09T00:35:45.860Z,8.47
2018-08-09T00:38:14.445Z,8.50
2018-08-09T00:40:43.103Z,9.33
2018-08-09T00:43:11.603Z,8.30
2018-08-09T00:45:40.203Z,8.43
2018-08-09T00:48:08.719Z,9.10
2018-08-09T00:50:37.287Z,9.47
2018-08-09T00:53:05.842Z,9.10
2018-08-09T00:55:34.402Z,9.50
2018-08-09T00:58:02.934Z,10.50
2018-08-09T01:00:31.636Z,10.13
2018-08-09T01:03:00.552Z,9.67
2018-08-09T01:05:29.386Z,9.47
2018-08-09T01:07:58.037Z,9.83
2018-08-09T01:10:26.695Z,9.50
2018-08-09T01:12:55.537Z,8.60
2018-08-09T01:15:24.340Z,10.27
2018-08-09T01:17:53.091Z,9.50
2018-08-09T01:20:22.901Z,8.80
2018-08-09T01:22:51.893Z,10.53
2018-08-09T01:25:20.941Z,9.73
2018-08-09T01:27:49.842Z,10.30
2018-08-09T01:30:18.872Z,11.17
2018-08-09T01:32:47.578Z,10.53
2018-08-09T01:35:16.186Z,10.43
2018-08-09T01:37:44.790Z,10.03
2018-08-09T01:40:13.567Z,10.17
2018-08-09T01:42:53.410Z,10.90
2018-08-09T01:45:22.519Z,10.60
2018-08-09T01:47:51.948Z,10.20
2018-08-09T01:50:21.676Z,11.03
2018-08-09T01:52:50.610Z,10.87
2018-08-09T01:55:19.547Z,10.93
2018-08-09T01:57:48.512Z,10.23
2018-08-09T02:00:17.574Z,10.93
2018-08-09T02:02:46.239Z,11.20
2018-08-09T02:05:14.951Z,11.30
2018-08-09T02:07:43.454Z,10.77
2018-08-09T02:10:12.128Z,11.33
2018-08-09T02:12:40.674Z,10.97
2018-08-09T02:15:09.370Z,11.17
2018-08-09T02:17:37.893Z,11.50
2018-08-09T02:20:06.575Z,11.20
2018-08-09T02:22:35.262Z,11.60
2018-08-09T02:25:03.867Z,11.67
2018-08-09T02:27:32.574Z,11.07
2018-08-09T02:30:01.456Z,12.90
2018-08-09T02:32:30.118Z,11.20
2018-08-09T02:34:58.845Z,11.87
2018-08-09T02:37:27.518Z,12.33
2018-08-09T02:39:56.230Z,11.27
2018-08-09T02:42:25.120Z,12.77
2018-08-09T02:44:54.101Z,12.57
2018-08-09T02:47:22.929Z,12.30
2018-08-09T02:49:52.865Z,11.83
2018-08-09T02:52:22.048Z,12.67
2018-08-09T02:54:51.408Z,12.57
2018-08-09T02:57:20.766Z,12.37
2018-08-09T02:59:49.796Z,12.83
2018-08-09T03:02:18.775Z,12.60
2018-08-09T03:04:47.358Z,12.27
2018-08-09T03:07:15.966Z,13.30
2018-08-09T03:09:44.699Z,13.97
2018-08-09T03:12:13.298Z,13.47
2018-08-09T03:14:41.814Z,13.30
2018-08-09T03:17:10.455Z,12.73
2018-08-09T03:19:39.007Z,12.50
2018-08-09T03:22:07.607Z,13.83
2018-08-09T03:24:36.111Z,13.17
2018-08-09T03:27:04.723Z,12.97
2018-08-09T03:29:33.305Z,13.20
2018-08-09T03:32:01.993Z,13.23
2018-08-09T03:34:30.782Z,13.47
2018-08-09T03:36:59.639Z,13.73
2018-08-09T03:39:28.324Z,13.43
2018-08-09T03:41:57.048Z,13.30
2018-08-09T03:44:25.706Z,12.37
2018-08-09T03:46:54.589Z,13.33
2018-08-09T03:49:23.981Z,12.87
2018-08-09T03:51:53.716Z,14.70
2018-08-09T03:54:23.131Z,13.10
2018-08-09T03:56:52.193Z,13.80
2018-08-09T03:59:21.110Z,13.27
2018-08-09T04:01:51.326Z,13.47
2018-08-09T04:04:20.316Z,13.90
2018-08-09T04:06:50.090Z,14.07
2018-08-09T04:09:19.971Z,13.50
2018-08-09T04:11:48.916Z,13.57
2018-08-09T04:14:17.624Z,11.80
2018-08-09T04:16:46.527Z,12.20
2018-08-09T04:19:15.310Z,14.00
2018-08-09T04:21:44.013Z,14.30
2018-08-09T04:24:12.562Z,15.03
2018-08-09T04:26:41.242Z,13.87
2018-08-09T04:29:09.772Z,13.77
2018-08-09T04:31:38.350Z,14.03
2018-08-09T04:34:09.025Z,14.13
2018-08-09T04:36:41.980Z,13.43
2018-08-09T04:39:10.606Z,14.10
2018-08-09T04:41:39.167Z,14.00
2018-08-09T04:44:07.755Z,13.73
2018-08-09T04:46:36.317Z,14.17
2018-08-09T04:49:04.951Z,15.00
2018-08-09T04:51:33.496Z,13.23
2018-08-09T04:54:02.235Z,13.27
2018-08-09T04:56:30.938Z,14.23
2018-08-09T04:58:59.676Z,14.10
2018-08-09T05:01:28.505Z,12.87
2018-08-09T05:03:57.454Z,13.30
2018-08-09T05:06:26.158Z,12.70
2018-08-09T05:08:55.162Z,11.97
2018-08-09T05:11:24.116Z,12.97
2018-08-09T05:13:53.209Z,12.83
2018-08-09T05:16:23.553Z,12.40
2018-08-09T05:18:52.823Z,11.23
2018-08-09T05:21:22.973Z,12.23
2018-08-09T05:23:51.953Z,12.17
2018-08-09T05:26:22.293Z,11.37
2018-08-09T05:28:51.390Z,10.77
2018-08-09T05:31:21.298Z,10.40
2018-08-09T05:33:50.847Z,10.50
2018-08-09T05:36:21.833Z,10.73
2018-08-09T05:38:51.338Z,9.97
2018-08-09T05:41:20.490Z,9.93
2018-08-09T05:43:49.936Z,9.83
2018-08-09T05:46:20.081Z,9.73
2018-08-09T05:48:50.289Z,8.67
2018-08-09T05:51:20.017Z,9.53
2018-08-09T05:53:49.379Z,8.57
2018-08-09T05:56:20.533Z,8.57
2018-08-09T05:58:50.350Z,8.07
2018-08-09T06:01:19.842Z,8.30
2018-08-09T06:03:48.695Z,8.13
2018-08-09T06:06:18.102Z,7.60
2018-08-09T06:08:46.878Z,7.80
2018-08-09T06:11:15.731Z,7.77
2018-08-09T06:13:44.369Z,7.70
2018-08-09T06:16:13.071Z,7.73
2018-08-09T06:18:41.762Z,7.50
2018-08-09T06:21:10.332Z,6.67
2018-08-09T06:23:38.976Z,7.08
2018-08-09T06:26:07.521Z,7.12
2018-08-09T06:28:36.241Z,7.72
2018-08-09T06:31:04.879Z,6.13
2018-08-09T06:33:33.698Z,6.58
2018-08-09T06:36:02.367Z,6.67
2018-08-09T06:38:31.191Z,6.78
2018-08-09T06:40:59.933Z,6.78
2018-08-09T06:43:28.899Z,6.78
2018-08-09T06:46:01.203Z,6.75
2018-08-09T06:48:29.933Z,6.55
2018-08-09T06:50:58.829Z,5.67
2018-08-09T06:53:27.932Z,6.60
2018-08-09T06:55:56.649Z,6.72
2018-08-09T06:58:25.345Z,7.20
2018-08-09T07:00:54.433Z,6.22
2018-08-09T07:03:24.110Z,6.70
2018-08-09T07:05:53.860Z,6.47
2018-08-09T07:08:23.048Z,6.80
2018-08-09T07:10:52.417Z,6.65
2018-08-09T07:13:21.574Z,7.03
2018-08-09T07:15:50.685Z,6.35
2018-08-09T07:18:21.428Z,6.78
2018-08-09T07:20:50.652Z,6.53
2018-08-09T07:23:20.444Z,6.58
2018-08-09T07:25:50.328Z,7.17
2018-08-09T07:28:20.014Z,6.28
2018-08-09T07:30:49.628Z,6.95
2018-08-09T07:33:18.541Z,6.40
2018-08-09T07:35:47.464Z,6.37
2018-08-09T07:38:16.185Z,6.97
2018-08-09T07:40:44.928Z,5.90
2018-08-09T07:43:13.521Z,6.35
2018-08-09T07:45:42.074Z,6.78
2018-08-09T07:48:10.656Z,6.53
2018-08-09T07:50:39.246Z,6.40
2018-08-09T07:53:07.898Z,7.10
2018-08-09T07:55:36.426Z,6.10
2018-08-09T07:58:05.090Z,6.80
2018-08-09T08:00:33.958Z,6.58
2018-08-09T08:03:02.822Z,6.87
2018-08-09T08:05:31.684Z,5.60
2018-08-09T08:08:00.604Z,5.92
2018-08-09T08:10:29.370Z,6.15
2018-08-09T08:12:58.094Z,5.92
2018-08-09T08:15:26.981Z,6.92
2018-08-09T08:17:55.872Z,6.17
2018-08-09T08:20:25.172Z,5.80
2018-08-09T08:22:54.124Z,6.83
2018-08-09T08:25:23.198Z,6.83
2018-08-09T08:27:52.423Z,6.65
2018-08-09T08:30:22.248Z,6.00
2018-08-09T08:32:51.829Z,6.67
2018-08-09T08:35:21.063Z,7.10
2018-08-09T08:37:50.501Z,7.05
2018-08-09T08:40:20.761Z,6.37
2018-08-09T08:42:50.387Z,6.22
2018-08-09T08:45:19.580Z,6.45
2018-08-09T08:47:49.617Z,6.40
2018-08-09T08:50:19.295Z,5.95
2018-08-09T08:52:48.872Z,6.65
2018-08-09T08:55:17.938Z,6.75
2018-08-09T08:57:46.452Z,6.10
2018-08-09T09:00:15.126Z,6.60
2018-08-09T09:02:43.795Z,6.78
2018-08-09T09:05:13.158Z,7.80
2018-08-09T09:07:41.955Z,6.58
2018-08-09T09:10:12.082Z,6.60
2018-08-09T09:12:40.618Z,7.42
2018-08-09T09:15:13.319Z,7.45
2018-08-09T09:17:42.777Z,7.55
2018-08-09T09:20:13.740Z,7.08
2018-08-09T09:22:42.883Z,6.85
2018-08-09T09:25:11.996Z,6.95
2018-08-09T09:27:40.503Z,6.85
2018-08-09T09:30:12.257Z,7.33
2018-08-09T09:32:40.822Z,7.72
2018-08-09T09:35:09.857Z,7.12
2018-08-09T09:37:38.801Z,7.20
2018-08-09T09:40:08.175Z,7.65
2018-08-09T09:42:37.197Z,7.30
2018-08-09T09:45:06.066Z,7.50
2018-08-09T09:47:34.772Z,7.95
2018-08-09T09:50:04.021Z,8.05
2018-08-09T09:52:32.861Z,7.47
2018-08-09T09:55:01.611Z,7.95
2018-08-09T09:57:30.320Z,7.67
2018-08-09T09:59:59.015Z,7.60
2018-08-09T10:02:27.801Z,7.72
2018-08-09T10:04:56.848Z,7.60
2018-08-09T10:07:26.148Z,7.97
2018-08-09T10:09:55.727Z,6.92
2018-08-09T10:12:25.311Z,7.30
2018-08-09T10:14:54.648Z,6.72
2018-08-09T10:17:23.961Z,7.45
2018-08-09T10:19:54.042Z,8.35
2018-08-09T10:22:23.627Z,8.43
2018-08-09T10:24:52.876Z,8.13
2018-08-09T10:27:22.097Z,6.90
2018-08-09T10:29:51.688Z,7.50
2018-08-09T10:32:21.567Z,7.47
2018-08-09T10:34:51.398Z,7.17
2018-08-09T10:37:22.230Z,7.05
2018-08-09T10:39:52.399Z,7.30
2018-08-09T10:42:21.744Z,7.78
2018-08-09T10:44:50.993Z,7.33
2018-08-09T10:47:20.062Z,7.08
2018-08-09T10:49:49.227Z,7.97
2018-08-09T10:52:18.291Z,7.47
2018-08-09T10:54:47.245Z,7.30
2018-08-09T10:57:15.928Z,6.78
2018-08-09T10:59:44.459Z,7.10
2018-08-09T11:02:13.301Z,7.15
2018-08-09T11:04:41.842Z,6.67
2018-08-09T11:07:10.428Z,7.03
2018-08-09T11:09:38.928Z,7.12
2018-08-09T11:12:07.518Z,7.55
2018-08-09T11:14:36.116Z,7.47
2018-08-09T11:17:04.710Z,7.08
2018-08-09T11:19:33.481Z,8.30
2018-08-09T11:22:02.428Z,7.60
2018-08-09T11:24:31.200Z,7.22
2018-08-09T11:26:59.873Z,7.42
2018-08-09T11:29:28.674Z,7.62
2018-08-09T11:31:57.443Z,8.23
2018-08-09T11:34:26.306Z,7.53
2018-08-09T11:36:55.497Z,7.78
2018-08-09T11:39:24.600Z,7.45
2018-08-09T11:41:54.022Z,7.67
2018-08-09T11:44:23.017Z,7.03
2018-08-09T11:46:52.515Z,7.33
2018-08-09T11:49:22.057Z,8.33
2018-08-09T11:51:51.958Z,7.08
2018-08-09T11:54:21.692Z,8.13
2018-08-09T11:56:50.954Z,7.58
2018-08-09T11:59:20.851Z,7.87
2018-08-09T12:01:51.330Z,7.58
2018-08-09T12:04:21.660Z,7.60
2018-08-09T12:06:51.089Z,7.92
2018-08-09T12:09:20.580Z,6.92
2018-08-09T12:11:51.017Z,7.70
2018-08-09T12:14:20.156Z,7.15
2018-08-09T12:16:49.236Z,7.22
2018-08-09T12:19:19.179Z,7.62
2018-08-09T12:21:49.602Z,7.92
2018-08-09T12:24:18.610Z,7.83
2018-08-09T12:26:47.227Z,7.28
2018-08-09T12:29:15.832Z,6.50
2018-08-09T12:31:44.405Z,7.20
2018-08-09T12:34:12.954Z,8.18
2018-08-09T12:36:41.632Z,8.10
2018-08-09T12:39:12.118Z,6.92
2018-08-09T12:41:40.896Z,6.80
2018-08-09T12:44:09.834Z,7.33
2018-08-09T12:46:38.374Z,6.62
2018-08-09T12:49:07.140Z,7.20
2018-08-09T12:51:35.732Z,7.22
2018-08-09T12:54:04.386Z,7.10
2018-08-09T12:56:32.903Z,6.15
2018-08-09T12:59:01.479Z,5.92
2018-08-09T13:01:30.025Z,6.15
2018-08-09T13:03:58.676Z,6.20
2018-08-09T13:06:27.405Z,7.05
2018-08-09T13:08:55.987Z,6.35
2018-08-09T13:11:24.951Z,5.72
2018-08-09T13:13:53.712Z,6.72
2018-08-09T13:16:22.341Z,6.28
2018-08-09T13:18:51.071Z,6.50
2018-08-09T13:21:19.692Z,6.35
2018-08-09T13:23:48.394Z,6.25
2018-08-09T13:26:16.940Z,6.58
2018-08-09T13:28:45.540Z,7.08
2018-08-09T13:31:14.138Z,6.33
2018-08-09T13:33:42.750Z,7.35
2018-08-09T13:36:11.248Z,6.83
2018-08-09T13:38:39.862Z,6.22
2018-08-09T13:41:08.455Z,6.72
2018-08-09T13:43:37.059Z,7.60
2018-08-09T13:46:05.803Z,6.87
2018-08-09T13:48:35.423Z,7.12
2018-08-09T13:51:04.021Z,7.55
2018-08-09T13:53:32.693Z,7.72
2018-08-09T13:56:01.339Z,7.58
2018-08-09T13:58:30.034Z,6.90
2018-08-09T14:00:58.590Z,6.50
2018-08-09T14:03:29.030Z,7.90
2018-08-09T14:05:59.425Z,6.87
2018-08-09T14:08:29.782Z,7.17
2018-08-09T14:11:00.017Z,6.55
2018-08-09T14:13:29.925Z,7.00
2018-08-09T14:16:04.068Z,7.10
2018-08-09T14:18:34.769Z,6.90
2018-08-09T14:21:05.705Z,7.28
2018-08-09T14:23:40.917Z,6.45
2018-08-09T14:26:11.241Z,6.78
2018-08-09T14:28:41.282Z,7.20
2018-08-09T14:31:10.879Z,6.78
2018-08-09T14:33:40.704Z,6.92
2018-08-09T14:36:09.716Z,6.47
2018-08-09T14:38:39.455Z,6.95
2018-08-09T14:41:09.824Z,6.85
2018-08-09T14:43:39.396Z,6.83
2018-08-09T14:46:08.954Z,6.90
2018-08-09T14:48:39.103Z,6.62
2018-08-09T14:51:09.078Z,7.15
2018-08-09T14:53:39.164Z,7.33
2018-08-09T14:56:09.426Z,6.70
2018-08-09T14:58:39.929Z,7.15
2018-08-09T15:01:09.711Z,6.92
2018-08-09T15:03:43.445Z,7.03
2018-08-09T15:06:13.419Z,7.20
2018-08-09T15:08:43.598Z,7.03
2018-08-09T15:11:13.909Z,6.75
2018-08-09T15:13:43.588Z,6.40
2018-08-09T15:16:13.251Z,7.33
2018-08-09T15:18:42.942Z,6.65
2018-08-09T15:21:12.430Z,6.35
2018-08-09T15:23:42.591Z,6.55
2018-08-09T15:26:12.683Z,6.55
2018-08-09T15:28:43.515Z,6.92
2018-08-09T15:31:12.888Z,6.65
2018-08-09T15:33:42.172Z,7.30
2018-08-09T15:36:11.998Z,6.50
2018-08-09T15:38:46.994Z,6.03
2018-08-09T15:41:17.368Z,6.85
2018-08-09T15:43:47.911Z,7.28
2018-08-09T15:46:18.643Z,6.70
2018-08-09T15:48:48.880Z,6.80
2018-08-09T15:51:18.453Z,6.72
2018-08-09T15:53:47.648Z,6.25
2018-08-09T15:56:18.449Z,6.47
2018-08-09T15:58:48.396Z,7.15
2018-08-09T16:01:18.550Z,7.28
2018-08-09T16:03:48.567Z,6.55
2018-08-09T16:06:18.291Z,6.83
2018-08-09T16:08:48.574Z,6.90
2018-08-09T16:11:19.499Z,6.37
2018-08-09T16:13:50.247Z,7.03
2018-08-09T16:16:19.890Z,6.95
2018-08-09T16:18:50.723Z,6.08
2018-08-09T16:21:20.357Z,6.85
2018-08-09T16:23:50.434Z,6.33
2018-08-09T16:26:20.396Z,6.95
2018-08-09T16:28:49.941Z,6.45
2018-08-09T16:31:21.465Z,6.62
2018-08-09T16:34:01.796Z,6.50
2018-08-09T16:36:35.456Z,6.75
2018-08-09T16:39:15.503Z,6.47
2018-08-09T16:41:49.033Z,5.90
2018-08-09T16:44:18.693Z,6.17
2018-08-09T16:46:49.351Z,6.12
2018-08-09T16:49:19.743Z,6.25
2018-08-09T16:51:49.360Z,6.60
2018-08-09T16:54:19.282Z,6.65
2018-08-09T16:56:49.190Z,6.55
2018-08-09T16:59:17.788Z,6.28
2018-08-09T17:01:46.382Z,7.05
2018-08-09T17:04:16.590Z,6.20
2018-08-09T17:06:46.126Z,6.37
2018-08-09T17:09:15.204Z,6.47
2018-08-09T17:11:44.964Z,6.05
2018-08-09T17:14:14.944Z,6.45
2018-08-09T17:16:44.093Z,6.75
2018-08-09T17:19:12.625Z,5.85
2018-08-09T17:21:41.323Z,5.97
2018-08-09T17:24:10.731Z,6.55
2018-08-09T17:26:39.605Z,6.10
2018-08-09T17:29:09.111Z,6.72
2018-08-09T17:31:37.677Z,6.30
2018-08-09T17:34:06.327Z,6.15
2018-08-09T17:36:34.905Z,6.33
2018-08-09T17:39:03.819Z,6.37
2018-08-09T17:41:32.395Z,6.37
2018-08-09T17:44:00.949Z,6.67
2018-08-09T17:46:29.537Z,7.58
2018-08-09T17:48:58.133Z,7.55
2018-08-09T17:51:26.685Z,6.55
2018-08-09T17:53:55.254Z,6.70
2018-08-09T17:56:23.820Z,6.22
2018-08-09T17:58:52.423Z,6.33
2018-08-09T18:01:20.996Z,7.30
2018-08-09T18:03:49.622Z,6.58
2018-08-09T18:06:18.219Z,7.22
2018-08-09T18:08:46.845Z,6.62
2018-08-09T18:11:15.795Z,6.78
2018-08-09T18:13:44.349Z,6.67
2018-08-09T18:16:12.881Z,7.33
2018-08-09T18:18:41.504Z,6.72
2018-08-09T18:21:10.026Z,6.75
2018-08-09T18:23:39.031Z,6.67
2018-08-09T18:26:07.670Z,6.55
2018-08-09T18:28:36.223Z,7.20
2018-08-09T18:31:04.808Z,7.70
2018-08-09T18:33:33.486Z,6.95
2018-08-09T18:36:02.019Z,6.20
2018-08-09T18:38:30.641Z,6.92
2018-08-09T18:40:59.237Z,6.65
2018-08-09T18:43:27.818Z,7.47
2018-08-09T18:45:56.428Z,7.17
2018-08-09T18:48:24.993Z,7.15
2018-08-09T18:50:53.636Z,7.20
2018-08-09T18:53:22.205Z,7.78
2018-08-09T18:55:50.789Z,8.20
2018-08-09T18:58:19.374Z,7.20
2018-08-09T19:00:47.919Z,7.42
2018-08-09T19:03:16.496Z,7.05
2018-08-09T19:05:45.058Z,7.80
2018-08-09T19:08:13.674Z,8.63
2018-08-09T19:10:42.814Z,7.87
2018-08-09T19:13:11.460Z,7.40
2018-08-09T19:15:40.829Z,8.35
2018-08-09T19:18:10.462Z,7.47
2018-08-09T19:20:39.031Z,8.50
2018-08-09T19:23:07.669Z,8.35
2018-08-09T19:25:36.289Z,7.28
2018-08-09T19:28:04.948Z,6.58
2018-08-09T19:30:33.490Z,6.00
2018-08-09T19:33:02.139Z,6.45
2018-08-09T19:35:30.688Z,5.30
2018-08-09T19:37:59.986Z,5.60
2018-08-09T19:40:30.266Z,5.30
2018-08-09T19:42:59.800Z,6.08
2018-08-09T19:45:28.531Z,5.95
2018-08-09T19:47:57.149Z,6.58
2018-08-09T19:50:38.065Z,7.22
2018-08-09T19:56:00.816Z,8.13
2018-08-09T19:58:29.472Z,7.87
2018-08-09T20:00:58.207Z,7.60
2018-08-09T20:03:26.934Z,7.83
2018-08-09T20:05:55.670Z,8.87
2018-08-09T20:08:24.505Z,8.07
2018-08-09T20:10:53.334Z,8.37
2018-08-09T20:13:22.215Z,9.57
2018-08-09T20:15:50.824Z,9.37
2018-08-09T20:18:19.628Z,9.67
2018-08-09T20:20:48.312Z,8.43
2018-08-09T20:23:17.725Z,9.47
2018-08-09T20:25:46.489Z,9.60
2018-08-09T20:28:15.340Z,10.00
2018-08-09T20:30:44.017Z,9.07
2018-08-09T20:33:12.858Z,10.43
2018-08-09T20:35:41.546Z,10.63
2018-08-09T20:38:10.448Z,10.13
2018-08-09T20:40:39.284Z,9.33
2018-08-09T20:43:08.042Z,10.17
2018-08-09T20:45:36.798Z,10.53
2018-08-09T20:48:05.701Z,9.77
2018-08-09T20:50:34.588Z,9.53
2018-08-09T20:53:03.322Z,10.47
2018-08-09T20:55:32.176Z,11.00
2018-08-09T20:58:01.142Z,9.53
2018-08-09T21:00:31.435Z,10.23
2018-08-09T21:03:00.810Z,10.50
2018-08-09T21:05:30.930Z,11.33
2018-08-09T21:07:59.519Z,11.37
2018-08-09T21:10:28.639Z,11.63
2018-08-09T21:12:57.302Z,12.77
2018-08-09T21:15:25.967Z,10.50
2018-08-09T21:17:54.576Z,11.80
2018-08-09T21:20:23.816Z,11.60
2018-08-09T21:22:52.567Z,11.73
2018-08-09T21:25:21.201Z,11.90
2018-08-09T21:27:50.123Z,11.87
2018-08-09T21:30:20.060Z,12.70
2018-08-09T21:32:49.131Z,13.17
2018-08-09T21:35:17.721Z,13.23
2018-08-09T21:37:46.595Z,12.20
2018-08-09T21:40:15.740Z,12.67
2018-08-09T21:42:44.332Z,12.63
2018-08-09T21:45:14.901Z,11.93
2018-08-09T21:47:43.482Z,11.93
2018-08-09T21:50:14.339Z,12.73
2018-08-09T21:52:43.018Z,12.13
2018-08-09T21:55:12.467Z,12.63
2018-08-09T21:57:41.730Z,12.23
2018-08-09T22:00:18.708Z,11.63
2018-08-09T22:02:47.235Z,12.50
2018-08-09T22:05:21.220Z,12.17
2018-08-09T22:07:55.100Z,12.90
2018-08-09T22:10:29.034Z,12.37
2018-08-09T22:13:03.036Z,12.40
2018-08-09T22:15:36.839Z,12.20
2018-08-09T22:18:10.852Z,14.13
2018-08-09T22:20:44.610Z,13.77
2018-08-09T22:23:13.198Z,12.67
2018-08-09T22:25:41.735Z,12.63
2018-08-09T22:28:10.302Z,12.70
2018-08-09T22:33:31.579Z,13.77
2018-08-09T22:36:00.167Z,13.53
2018-08-09T22:38:29.275Z,12.27
2018-08-09T22:40:57.908Z,12.67
2018-08-09T22:43:26.538Z,13.53
2018-08-09T22:45:55.071Z,13.83
2018-08-09T22:48:23.626Z,13.03
2018-08-09T22:50:52.229Z,13.40
2018-08-09T22:53:20.804Z,13.77
2018-08-09T22:55:49.410Z,14.70
2018-08-09T22:58:18.029Z,14.60
2018-08-09T23:00:46.616Z,12.40
2018-08-09T23:03:15.327Z,12.60
2018-08-09T23:05:43.874Z,13.80
2018-08-09T23:08:13.739Z,14.03
2018-08-09T23:10:43.249Z,13.87
2018-08-09T23:13:12.791Z,12.97
2018-08-09T23:15:42.091Z,12.80
2018-08-09T23:18:10.783Z,12.67
2018-08-09T23:20:39.832Z,13.07
2018-08-09T23:23:08.466Z,12.40
2018-08-09T23:25:37.071Z,13.37
2018-08-09T23:28:06.391Z,13.47
2018-08-09T23:30:35.055Z,13.07
2018-08-09T23:33:03.767Z,12.33
2018-08-09T23:35:32.404Z,13.63
2018-08-09T23:38:01.011Z,12.67
2018-08-09T23:40:29.620Z,12.40
2018-08-09T23:42:58.233Z,13.30
2018-08-09T23:45:26.846Z,13.47
2018-08-09T23:47:55.473Z,10.80
2018-08-09T23:50:24.121Z,12.03
2018-08-09T23:52:52.707Z,11.57
2018-08-09T23:55:21.286Z,11.13
2018-08-09T23:57:49.853Z,11.43
